createdAt,value
2018-09-04T00:09:11.303Z,63.6
2018-09-04T00:19:13.169Z,63.6
2018-09-04T00:29:14.502Z,63.6
2018-09-04T00:39:16.773Z,63.6
2018-09-04T00:49:18.992Z,63.6
2018-09-04T00:59:20.977Z,63.6
2018-09-04T01:09:23.106Z,63.5
2018-09-04T01:19:24.876Z,63.6
2018-09-04T01:29:27.129Z,63.6
2018-09-04T01:39:28.769Z,63.6
2018-09-04T01:49:30.496Z,63.6
2018-09-04T01:59:32.649Z,63.6
2018-09-04T02:09:34.631Z,63.6
2018-09-04T02:19:36.705Z,63.6
2018-09-04T02:29:38.596Z,63.6
2018-09-04T02:39:40.634Z,63.6
2018-09-04T02:49:42.548Z,63.5
2018-09-04T02:59:44.816Z,63.6
2018-09-04T03:09:46.830Z,63.5
2018-09-04T03:19:49.195Z,63.5
2018-09-04T03:29:50.515Z,63.5
2018-09-04T03:39:51.868Z,63.5
2018-09-04T03:49:53.609Z,63.5
2018-09-04T03:59:55.876Z,63.4
2018-09-04T04:09:57.768Z,63.4
2018-09-04T04:20:00.100Z,63.4
2018-09-04T04:30:02.104Z,63.4
2018-09-04T04:40:03.665Z,63.4
2018-09-04T04:50:05.404Z,63.4
2018-09-04T05:00:07.207Z,63.4
2018-09-04T05:10:09.499Z,63.3
2018-09-04T05:20:11.768Z,63.3
2018-09-04T05:30:13.520Z,63.3
2018-09-04T05:40:15.648Z,63.2
2018-09-04T05:50:17.704Z,63.2
2018-09-04T06:00:19.476Z,63.2
2018-09-04T06:10:21.084Z,63.1
2018-09-04T06:20:22.878Z,63.1
2018-09-04T06:30:24.836Z,63.1
2018-09-04T06:40:26.865Z,63.1
2018-09-04T06:50:28.916Z,63.1
2018-09-04T07:00:30.498Z,63.1
2018-09-04T07:10:32.668Z,63
2018-09-04T07:20:34.399Z,63
2018-09-04T07:30:36.047Z,63
2018-09-04T07:40:38.195Z,63
2018-09-04T07:50:40.884Z,63.1
2018-09-04T08:00:43.203Z,63.1
2018-09-04T08:10:45.150Z,63.1
2018-09-04T08:20:47.334Z,63.1
2018-09-04T08:30:48.545Z,63.1
2018-09-04T08:40:50.292Z,63.2
2018-09-04T08:50:52.424Z,63.2
2018-09-04T09:00:53.915Z,63.3
2018-09-04T09:10:58.037Z,63.4
2018-09-04T09:21:00.346Z,63.5
2018-09-04T09:31:02.242Z,63.6
2018-09-04T09:41:04.985Z,63.6
2018-09-04T09:51:06.718Z,63.6
2018-09-04T10:01:08.524Z,63.6
2018-09-04T10:11:10.339Z,63.7
2018-09-04T10:21:12.241Z,63.8
2018-09-04T10:31:14.337Z,63.8
2018-09-04T10:41:16.302Z,63.9
2018-09-04T10:51:18.007Z,63.8
2018-09-04T11:01:19.886Z,63.8
2018-09-04T11:11:21.816Z,63.8
2018-09-04T11:21:23.858Z,63.8
2018-09-04T11:31:25.982Z,63.8
2018-09-04T11:41:27.395Z,63.9
2018-09-04T11:51:29.210Z,63.9
2018-09-04T12:01:31.287Z,63.9
2018-09-04T12:11:33.065Z,63.9
2018-09-04T12:21:35.116Z,63.9
2018-09-04T12:31:37.079Z,63.9
2018-09-04T12:41:38.859Z,63.7
2018-09-04T12:51:41.300Z,63.8
2018-09-04T13:01:42.923Z,63.8
2018-09-04T13:11:47.406Z,63.8
2018-09-04T13:21:49.006Z,63.8
2018-09-04T13:31:51.035Z,63.8
2018-09-04T13:41:53.578Z,63.8
2018-09-04T13:51:56.166Z,63.8
2018-09-04T14:01:59.226Z,63.8
2018-09-04T14:12:02.006Z,63.8
2018-09-04T14:22:04.148Z,63.8
2018-09-04T14:32:05.865Z,63.7
2018-09-04T14:42:07.959Z,63.7
2018-09-04T14:52:09.590Z,63.6
2018-09-04T15:02:11.627Z,63.6
2018-09-04T15:12:13.518Z,63.6
2018-09-04T15:22:15.761Z,63.5
2018-09-04T15:32:17.906Z,63.5
2018-09-04T15:42:19.831Z,63.5
2018-09-04T15:52:21.899Z,63.4
2018-09-04T16:02:23.156Z,63.4
2018-09-04T16:12:25.049Z,63.4
2018-09-04T16:22:27.062Z,63.3
2018-09-04T16:32:28.896Z,63.3
2018-09-04T16:42:30.659Z,63.3
2018-09-04T16:52:32.574Z,63
2018-09-04T17:02:34.499Z,63.7
2018-09-04T17:12:36.539Z,65.2
2018-09-04T17:22:38.543Z,65.3
2018-09-04T17:32:40.676Z,65.2
2018-09-04T17:42:42.801Z,64.5
2018-09-04T17:52:44.637Z,64.2
2018-09-04T18:02:46.370Z,64.1
2018-09-04T18:12:48.053Z,63.9
2018-09-04T18:22:49.470Z,63.8
2018-09-04T18:32:51.778Z,63.8
2018-09-04T18:42:53.922Z,63.5
2018-09-04T18:52:56.613Z,63.7
2018-09-04T19:02:58.804Z,63.7
2018-09-04T19:13:01.361Z,63.6
2018-09-04T19:23:03.193Z,63.8
2018-09-04T19:33:04.759Z,63.9
2018-09-04T19:43:06.629Z,63.8
2018-09-04T19:53:08.439Z,63.9
2018-09-04T20:03:10.196Z,63.9
2018-09-04T20:13:12.319Z,63.9
2018-09-04T20:23:13.965Z,63.9
2018-09-04T20:33:15.956Z,63.9
2018-09-04T20:43:17.730Z,64
2018-09-04T20:53:20.083Z,64
2018-09-04T21:03:21.713Z,63.9
2018-09-04T21:13:23.948Z,64
2018-09-04T21:23:26.330Z,64
2018-09-04T21:33:28.068Z,64
2018-09-04T21:43:30.236Z,64
2018-09-04T21:53:31.608Z,64.1
2018-09-04T22:03:33.273Z,64
2018-09-04T22:13:35.131Z,64.1
2018-09-04T22:23:37.059Z,64.1
2018-09-04T22:33:38.800Z,64.1
2018-09-04T22:43:40.080Z,64.1
2018-09-04T22:53:42.007Z,64.1
2018-09-04T23:03:44.097Z,64.1
2018-09-04T23:13:46.267Z,64.2
2018-09-04T23:23:48.383Z,64.1
2018-09-04T23:33:50.037Z,64.2
2018-09-04T23:43:52.505Z,64.2
2018-09-04T23:53:54.908Z,64.3
